createdAt,value
2018-05-02T00:00:39.753Z,9.00
2018-05-02T00:03:19.136Z,9.00
2018-05-02T00:05:46.902Z,9.00
2018-05-02T00:08:15.409Z,9.10
2018-05-02T00:10:57.524Z,9.10
2018-05-02T00:13:26.981Z,9.20
2018-05-02T00:15:57.480Z,9.20
2018-05-02T00:18:27.804Z,9.20
2018-05-02T00:20:56.118Z,9.10
2018-05-02T00:23:34.222Z,9.20
2018-05-02T00:26:08.596Z,9.30
2018-05-02T00:28:41.591Z,9.20
2018-05-02T00:31:10.869Z,9.20
2018-05-02T00:33:42.304Z,9.30
2018-05-02T00:36:14.433Z,9.30
2018-05-02T00:38:44.630Z,9.40
2018-05-02T00:41:20.787Z,9.30
2018-05-02T00:44:30.243Z,9.30
2018-05-02T00:47:00.985Z,9.40
2018-05-02T00:49:36.092Z,9.30
2018-05-02T00:52:13.974Z,9.40
2018-05-02T00:54:42.534Z,9.40
2018-05-02T00:57:18.734Z,9.50
2018-05-02T00:59:58.597Z,9.50
2018-05-02T01:02:31.558Z,9.50
2018-05-02T01:07:55.607Z,9.60
2018-05-02T01:10:24.169Z,9.60
2018-05-02T01:13:06.889Z,9.60
2018-05-02T01:15:40.533Z,9.60
2018-05-02T01:18:15.202Z,9.50
2018-05-02T01:20:47.649Z,9.60
2018-05-02T01:23:24.019Z,9.60
2018-05-02T01:25:55.632Z,9.60
2018-05-02T01:28:24.865Z,9.60
2018-05-02T01:30:54.289Z,9.70
2018-05-02T01:33:23.030Z,9.60
2018-05-02T01:35:51.900Z,9.70
2018-05-02T01:38:28.674Z,9.60
2018-05-02T01:40:58.067Z,9.70
2018-05-02T01:43:36.969Z,9.60
2018-05-02T01:46:07.322Z,9.60
2018-05-02T01:48:55.983Z,9.70
2018-05-02T01:51:24.997Z,9.60
2018-05-02T01:53:54.938Z,9.60
2018-05-02T01:56:30.485Z,9.60
2018-05-02T01:59:07.051Z,9.60
2018-05-02T02:01:39.630Z,9.70
2018-05-02T02:04:15.840Z,9.60
2018-05-02T02:06:44.322Z,9.60
2018-05-02T02:09:13.379Z,9.60
2018-05-02T02:11:40.906Z,9.60
2018-05-02T02:14:15.748Z,9.60
2018-05-02T02:20:53.000Z,9.60
2018-05-02T02:23:29.525Z,9.50
2018-05-02T02:26:12.149Z,9.60
2018-05-02T02:28:44.726Z,9.60
2018-05-02T02:31:51.210Z,9.60
2018-05-02T02:34:24.142Z,9.60
2018-05-02T02:37:07.143Z,9.60
2018-05-02T02:39:43.128Z,9.70
2018-05-02T02:42:20.745Z,9.70
2018-05-02T02:44:57.829Z,9.60
2018-05-02T02:47:46.707Z,9.70
2018-05-02T02:50:19.347Z,9.60
2018-05-02T02:52:49.722Z,9.60
2018-05-02T02:55:17.607Z,9.60
2018-05-02T02:57:56.552Z,9.60
2018-05-02T03:00:33.934Z,9.60
2018-05-02T03:03:04.571Z,9.60
2018-05-02T03:05:39.914Z,9.50
2018-05-02T03:08:18.843Z,9.50
2018-05-02T03:10:54.147Z,9.40
2018-05-02T03:13:27.779Z,9.40
2018-05-02T03:16:31.241Z,9.40
2018-05-02T03:19:06.930Z,9.40
2018-05-02T03:21:53.231Z,9.40
2018-05-02T03:24:22.824Z,9.30
2018-05-02T03:26:55.806Z,9.30
2018-05-02T03:29:27.241Z,9.30
2018-05-02T03:42:15.383Z,9.20
2018-05-02T03:44:48.019Z,9.20
2018-05-02T04:17:56.638Z,9.10
2018-05-02T04:20:28.918Z,9.10
2018-05-02T04:23:01.392Z,9.10
2018-05-02T04:25:37.057Z,9.10
2018-05-02T04:28:08.146Z,9.10
2018-05-02T04:30:43.660Z,9.10
2018-05-02T04:33:36.214Z,9.10
2018-05-02T04:36:05.470Z,9.20
2018-05-02T04:38:36.100Z,9.20
2018-05-02T04:41:11.330Z,9.20
2018-05-02T04:43:57.264Z,9.20
2018-05-02T04:46:38.857Z,9.20
2018-05-02T04:49:07.874Z,9.20
2018-05-02T04:51:40.103Z,9.20
2018-05-02T04:54:07.808Z,9.20
2018-05-02T04:56:39.236Z,9.30
2018-05-02T04:59:09.813Z,9.20
2018-05-02T05:01:44.666Z,9.20
2018-05-02T05:04:52.700Z,9.20
2018-05-02T05:07:24.712Z,9.20
2018-05-02T05:09:59.784Z,9.20
2018-05-02T05:12:29.961Z,9.30
2018-05-02T05:15:11.951Z,9.20
2018-05-02T05:17:48.929Z,9.20
2018-05-02T05:20:59.249Z,9.20
2018-05-02T05:23:33.567Z,9.20
2018-05-02T05:26:02.377Z,9.30
2018-05-02T05:28:31.881Z,9.30
2018-05-02T05:31:05.723Z,9.30
2018-05-02T05:33:35.797Z,9.40
2018-05-02T05:36:07.247Z,9.40
2018-05-02T05:38:39.938Z,9.40
2018-05-02T05:41:10.344Z,9.40
2018-05-02T05:43:38.675Z,9.40
2018-05-02T05:46:08.081Z,9.40
2018-05-02T05:48:35.634Z,9.40
2018-05-02T05:51:11.025Z,9.40
2018-05-02T05:53:49.195Z,9.40
2018-05-02T05:56:22.477Z,9.40
2018-05-02T05:58:58.617Z,9.40
2018-05-02T06:01:30.773Z,9.40
2018-05-02T06:04:45.852Z,9.40
2018-05-02T06:07:14.045Z,9.40
2018-05-02T06:09:45.189Z,9.50
2018-05-02T06:12:13.481Z,9.50
2018-05-02T06:14:41.193Z,9.50
2018-05-02T06:17:23.080Z,9.40
2018-05-02T06:20:41.249Z,9.40
2018-05-02T06:23:10.505Z,9.40
2018-05-02T06:25:38.038Z,9.40
2018-05-02T06:28:12.911Z,9.50
2018-05-02T06:30:40.988Z,9.50
2018-05-02T06:33:19.104Z,9.50
2018-05-02T06:36:07.961Z,9.50
2018-05-02T06:38:40.499Z,9.50
2018-05-02T06:41:09.436Z,9.50
2018-05-02T06:43:37.293Z,9.50
2018-05-02T06:46:11.723Z,9.50
2018-05-02T06:48:50.435Z,9.50
2018-05-02T06:51:55.139Z,9.50
2018-05-02T06:54:28.733Z,9.50
2018-05-02T06:57:01.785Z,9.40
2018-05-02T06:59:32.259Z,9.40
2018-05-02T07:02:02.110Z,9.40
2018-05-02T07:07:27.846Z,9.40
2018-05-02T07:10:03.840Z,9.40
2018-05-02T07:12:37.520Z,9.40
2018-05-02T07:15:08.858Z,9.40
2018-05-02T07:17:40.693Z,9.30
2018-05-02T07:20:21.136Z,9.30
2018-05-02T07:43:21.351Z,9.40
2018-05-02T07:46:07.064Z,9.50
2018-05-02T07:48:43.239Z,9.50
2018-05-02T08:00:40.148Z,9.60
2018-05-02T08:03:18.591Z,9.70
2018-05-02T08:05:58.341Z,9.70
2018-05-02T19:00:05.729Z,10.00
2018-05-02T19:02:40.520Z,10.00
2018-05-02T19:41:57.475Z,8.40
2018-05-02T19:44:48.614Z,8.30
2018-05-02T19:47:32.399Z,8.30
2018-05-02T19:53:59.307Z,8.20
2018-05-02T19:56:44.105Z,8.20
2018-05-02T19:59:35.870Z,8.00
2018-05-02T20:02:27.827Z,7.90
2018-05-02T20:28:45.402Z,7.40
2018-05-02T20:34:12.093Z,7.20
2018-05-02T20:40:08.609Z,7.10
2018-05-02T20:45:57.292Z,6.90
2018-05-02T20:49:00.265Z,6.80
2018-05-02T21:22:02.978Z,6.30
2018-05-02T21:24:38.820Z,6.20
2018-05-02T21:27:13.713Z,6.10
2018-05-02T21:29:47.623Z,6.00
2018-05-02T22:31:02.907Z,5.10
2018-05-02T22:33:45.658Z,5.10
2018-05-02T22:36:23.346Z,5.10
2018-05-02T22:38:53.049Z,5.00
2018-05-02T22:54:25.969Z,4.90
2018-05-02T22:57:04.674Z,5.00
2018-05-02T23:02:17.203Z,5.00
2018-05-02T23:04:57.774Z,4.90
2018-05-02T23:10:37.664Z,5.00
2018-05-02T23:13:07.711Z,5.00
2018-05-02T23:15:44.579Z,4.90
2018-05-02T23:18:16.288Z,4.90
2018-05-02T23:20:47.076Z,4.90
2018-05-02T23:23:21.413Z,4.80
2018-05-02T23:26:37.233Z,4.80
2018-05-02T23:29:12.240Z,4.80
2018-05-02T23:31:49.337Z,4.80
2018-05-02T23:34:20.171Z,4.80
2018-05-02T23:37:11.695Z,4.80
2018-05-02T23:40:01.778Z,4.90
2018-05-02T23:42:36.474Z,4.90
2018-05-02T23:45:08.304Z,4.80
2018-05-02T23:47:38.034Z,4.80
2018-05-02T23:50:08.720Z,4.80
2018-05-02T23:52:41.022Z,4.70
2018-05-02T23:55:38.127Z,4.80
2018-05-02T23:58:12.726Z,4.80
